Dumfries, Virginia
Current Conditions -  °F | °C
As of 4:56 AM on Thursday 18 Dec 2014 (Local Time) from KNYG Reporting Station
Clear Clear  
Wind Chill: 27°   Ceiling: Unl
Heat Index: 36°   Visibility: 10mi
Dew Point: 19°   Wind: 14mph
Humidity: 50%   Direction: 320°NW
Pressure: 30.14"   Gusts: NA
Location:  38.57°N, 77.33°W
Report Text: KNYG 180956Z AUTO 32012KT 10SM CLR 02/M07 A3014 RMK AO2 SLP206 T00221072 $
Loading
Personal Weather Stations






























Interactive Weather Map New forecast layout! Learn more

10-Day Weather Forecast

Advertisements
Track Severe Weather on mobile